Lakeside, Colorado
Current Conditions -  °F | °C
As of 12:45 PM on Sunday 25 Jan 2015 (Local Time) from KBJC Reporting Station
Scattered Clouds Scattered Clouds  
Wind Chill: 61°   Ceiling: Unl
Heat Index: 61°   Visibility: 30mi
Dew Point: 25°   Wind: 17mph
Humidity: 25%   Direction: 310°NW
Pressure: 30.13"   Gusts: 26mph
Location:  39.775°N, 105.049°W
Report Text: KBJC 251945Z 31015G23KT 30SM FEW070 SCT150 16/M04 A3013
Loading
Personal Weather Stations






























Interactive Weather Map New forecast layout! Learn more

10-Day Weather Forecast

Advertisements
Track Severe Weather on mobile